Time;durP1;ratioP1;P1;durP2;ratioP2;P2;SDS_P1;SDS_P2;PMS_P1;PMS_P2;Temp;Humidity;BMP_temperature;BMP_pressure;BME280_temperature;BME280_humidity;BME280_pressure;Samples;Min_cycle;Max_cycle;Signal;HPM_P1;HPM_P2
2021/04/04 00:02:06;;;;;;;27.55;18.67;;;;;;;1.39;69.99;96216.09;3578863;39;20326;-60
2021/04/04 00:04:33;;;;;;;23.55;18.88;;;;;;;1.28;70.75;96225.22;3569493;40;20076;-59
2021/04/04 00:07:01;;;;;;;24.98;17.67;;;;;;;1.26;70.05;96226.41;3569836;40;20080;-59
2021/04/04 00:09:29;;;;;;;23.40;17.17;;;;;;;1.27;69.72;96228.00;3579376;39;20077;-60
2021/04/04 00:11:56;;;;;;;24.08;17.42;;;;;;;1.26;68.79;96231.59;3577106;39;20078;-60
2021/04/04 00:14:23;;;;;;;26.00;18.45;;;;;;;1.30;68.88;96230.22;3571486;40;20099;-60
2021/04/04 00:16:51;;;;;;;25.98;17.60;;;;;;;1.31;68.60;96227.44;3571273;40;20067;-61
2021/04/04 00:19:18;;;;;;;27.80;19.65;;;;;;;1.29;69.24;96229.41;3570410;40;20302;-60
2021/04/04 00:21:45;;;;;;;27.15;17.92;;;;;;;1.37;68.62;96244.06;3571448;40;20072;-61
2021/04/04 00:24:13;;;;;;;22.52;16.45;;;;;;;1.37;68.20;96228.47;3579513;39;20310;-61
2021/04/04 00:26:40;;;;;;;22.48;16.58;;;;;;;1.41;68.17;96239.28;3576708;39;20878;-60
2021/04/04 00:29:08;;;;;;;24.90;18.55;;;;;;;1.41;68.68;96234.09;3564417;40;20313;-61
2021/04/04 00:31:37;;;;;;;18.15;14.48;;;;;;;1.44;68.15;96239.72;3571068;40;20399;-60
2021/04/04 00:34:05;;;;;;;21.30;16.20;;;;;;;1.50;67.79;96240.75;3571422;40;20069;-60
2021/04/04 00:36:34;;;;;;;21.58;15.77;;;;;;;1.56;67.84;96247.81;3579078;39;20076;-60
2021/04/04 00:39:08;;;;;;;21.98;15.73;;;;;;;1.58;67.23;96235.44;3570926;40;20425;-60
2021/04/04 00:41:40;;;;;;;19.15;15.45;;;;;;;1.63;67.61;96245.25;3577594;39;20065;-60
2021/04/04 00:44:09;;;;;;;19.20;14.32;;;;;;;1.63;66.26;96246.03;3572694;40;20311;-60
2021/04/04 00:46:38;;;;;;;18.88;15.00;;;;;;;1.65;67.82;96248.47;3569813;40;20404;-60
2021/04/04 00:49:06;;;;;;;22.83;16.38;;;;;;;1.68;67.12;96237.66;3572217;40;20137;-60
2021/04/04 00:51:34;;;;;;;19.85;14.68;;;;;;;1.64;67.41;96241.66;3569871;40;20065;-61
2021/04/04 00:54:05;;;;;;;18.02;15.00;;;;;;;1.65;66.79;96238.06;3579814;39;20072;-60
2021/04/04 00:56:33;;;;;;;22.52;16.38;;;;;;;1.65;67.51;96245.88;3578252;39;20326;-60
2021/04/04 00:59:02;;;;;;;20.17;16.08;;;;;;;1.58;67.88;96245.00;3575198;40;20069;-60
2021/04/04 01:01:33;;;;;;;21.05;15.63;;;;;;;1.56;68.18;96244.38;3576905;39;20077;-60
2021/04/04 01:04:00;;;;;;;22.48;17.10;;;;;;;1.64;68.50;96246.84;3577613;39;20061;-60
2021/04/04 01:06:28;;;;;;;23.10;16.00;;;;;;;1.61;68.67;96242.03;3577764;39;20073;-60
2021/04/04 01:08:56;;;;;;;19.90;15.25;;;;;;;1.61;68.86;96234.22;3579643;39;20092;-60
2021/04/04 01:11:56;;;;;;;20.73;14.90;;;;;;;1.64;67.66;96242.44;3572113;40;20072;-60
2021/04/04 01:14:32;;;;;;;19.17;13.50;;;;;;;1.65;67.10;96244.06;3573070;40;20445;-60
2021/04/04 01:17:03;;;;;;;20.17;15.32;;;;;;;1.63;68.67;96255.66;3572251;40;20617;-60
2021/04/04 01:19:54;;;;;;;22.35;15.50;;;;;;;1.62;68.78;96246.25;3570028;40;20102;-60
2021/04/04 01:22:39;;;;;;;21.65;14.55;;;;;;;1.66;67.98;96245.66;3570884;40;20084;-60
2021/04/04 01:25:14;;;;;;;20.23;15.30;;;;;;;1.73;67.69;96239.69;3577779;39;20390;-61
2021/04/04 01:27:49;;;;;;;18.02;13.85;;;;;;;1.67;68.16;96246.44;3580420;39;20072;-58
2021/04/04 01:30:17;;;;;;;22.95;14.57;;;;;;;1.61;67.69;96227.22;3572537;40;20365;-60
2021/04/04 01:32:48;;;;;;;14.32;12.52;;;;;;;1.69;66.86;96240.09;3572556;40;20326;-59
2021/04/04 01:35:18;;;;;;;18.45;14.55;;;;;;;1.74;67.42;96243.91;3571526;40;20073;-59
2021/04/04 01:37:50;;;;;;;19.75;15.25;;;;;;;1.74;66.59;96243.91;3578116;39;20073;-59
2021/04/04 01:40:18;;;;;;;17.73;13.88;;;;;;;1.74;66.81;96242.13;3578513;39;20073;-59
2021/04/04 01:42:47;;;;;;;18.02;13.80;;;;;;;1.74;68.05;96244.72;3580515;39;20092;-59
2021/04/04 01:45:16;;;;;;;18.13;14.85;;;;;;;1.72;67.98;96241.50;3571513;40;20068;-60
2021/04/04 01:47:45;;;;;;;20.02;13.98;;;;;;;1.68;67.56;96246.28;3570570;40;20071;-59
2021/04/04 01:50:14;;;;;;;16.38;13.43;;;;;;;1.70;67.68;96256.47;3572118;40;20057;-60
2021/04/04 01:52:42;;;;;;;29.25;20.75;;;;;;;1.76;66.82;96234.09;3579820;39;20073;-60
2021/04/04 01:55:11;;;;;;;19.00;13.60;;;;;;;1.76;67.34;96245.34;3573360;40;20068;-60
2021/04/04 01:57:39;;;;;;;20.92;15.73;;;;;;;1.73;67.79;96244.88;3572368;40;20073;-59
2021/04/04 02:00:13;;;;;;;20.13;13.93;;;;;;;1.67;68.13;96242.06;3571108;40;20088;-60
2021/04/04 02:02:46;;;;;;;19.13;14.68;;;;;;;1.70;67.14;96246.09;3580603;39;20321;-59
2021/04/04 02:05:15;;;;;;;17.85;15.32;;;;;;;1.77;67.34;96251.31;3576193;40;20065;-59
2021/04/04 02:07:45;;;;;;;21.60;16.70;;;;;;;1.77;67.99;96252.16;3571803;40;20077;-61
2021/04/04 02:10:14;;;;;;;18.60;15.50;;;;;;;1.71;68.76;96255.50;3564834;40;20428;-62
2021/04/04 02:12:42;;;;;;;23.15;16.92;;;;;;;1.69;68.32;96245.28;3578737;39;20065;-62
2021/04/04 02:15:12;;;;;;;19.50;14.95;;;;;;;1.73;68.56;96248.31;3572067;40;20069;-59
2021/04/04 02:17:41;;;;;;;19.55;15.63;;;;;;;1.71;68.74;96255.50;3578544;39;20303;-59
2021/04/04 02:20:14;;;;;;;20.65;16.13;;;;;;;1.71;68.99;96245.09;3571618;40;20061;-59
2021/04/04 02:22:42;;;;;;;20.33;15.00;;;;;;;1.78;67.99;96256.34;3579108;39;21528;-59
2021/04/04 02:25:11;;;;;;;21.95;14.85;;;;;;;1.77;68.17;96256.53;3572575;40;20069;-59
2021/04/04 02:27:43;;;;;;;22.35;15.32;;;;;;;1.79;67.70;96244.94;3579575;39;20069;-59
2021/04/04 02:30:17;;;;;;;24.42;16.58;;;;;;;1.79;67.87;96249.34;3572645;40;20106;-59
2021/04/04 02:32:50;;;;;;;28.20;20.17;;;;;;;1.70;68.71;96240.88;3571717;40;20100;-60
2021/04/04 02:35:27;;;;;;;23.27;14.95;;;;;;;1.72;68.95;96245.91;3579190;39;20073;-60
2021/04/04 02:37:56;;;;;;;20.35;15.70;;;;;;;1.80;68.29;96253.56;3571276;40;20807;-59
2021/04/04 02:40:25;;;;;;;20.40;15.00;;;;;;;1.79;68.57;96252.72;3580012;39;20386;-59
2021/04/04 02:42:56;;;;;;;19.85;15.23;;;;;;;1.78;68.38;96248.56;3575934;40;20080;-59
2021/04/04 02:45:29;;;;;;;17.92;14.85;;;;;;;1.74;67.66;96257.72;3579921;39;20072;-59
2021/04/04 02:48:00;;;;;;;18.63;14.70;;;;;;;1.71;67.69;96247.69;3571974;40;20080;-59
2021/04/04 02:50:28;;;;;;;17.90;12.95;;;;;;;1.64;67.35;96257.25;3572856;40;20065;-59
2021/04/04 02:53:00;;;;;;;23.02;15.00;;;;;;;1.62;66.98;96254.84;3579147;39;20071;-59
2021/04/04 02:55:32;;;;;;;16.35;13.02;;;;;;;1.54;67.06;96255.00;3578642;39;20372;-59
2021/04/04 02:58:02;;;;;;;18.95;13.70;;;;;;;1.44;67.36;96247.50;3571281;40;20300;-59
2021/04/04 03:00:30;;;;;;;20.38;13.77;;;;;;;1.38;68.00;96250.88;3569754;40;20065;-59
2021/04/04 03:03:01;;;;;;;18.58;14.77;;;;;;;1.26;68.86;96257.59;3568576;40;20069;-58
2021/04/04 03:05:30;;;;;;;21.13;15.93;;;;;;;1.14;69.56;96260.69;3572506;40;20077;-58
2021/04/04 03:08:01;;;;;;;18.77;15.00;;;;;;;0.97;69.67;96264.53;3576684;39;20064;-59
2021/04/04 03:10:34;;;;;;;19.60;14.15;;;;;;;0.88;69.01;96264.66;3578981;39;20069;-59
2021/04/04 03:13:02;;;;;;;15.65;11.90;;;;;;;0.87;68.90;96268.25;3577152;39;20074;-59
2021/04/04 03:15:32;;;;;;;16.05;11.85;;;;;;;0.80;69.00;96269.97;3569172;40;20085;-59
2021/04/04 03:18:00;;;;;;;17.30;12.65;;;;;;;0.78;67.78;96266.75;3570480;40;20065;-59
2021/04/04 03:20:28;;;;;;;15.93;11.82;;;;;;;0.69;68.79;96265.25;3577113;39;20070;-61
2021/04/04 03:22:56;;;;;;;17.73;13.15;;;;;;;0.69;69.84;96270.44;3570417;40;20091;-58
2021/04/04 03:25:25;;;;;;;16.30;10.80;;;;;;;0.73;67.41;96271.69;3579263;39;20080;-60
2021/04/04 03:27:56;;;;;;;15.20;11.30;;;;;;;0.72;68.08;96275.28;3578505;39;20402;-60
2021/04/04 03:30:36;;;;;;;13.85;10.75;;;;;;;0.69;69.20;96267.84;3579076;39;20084;-60
2021/04/04 03:33:05;;;;;;;16.98;11.27;;;;;;;0.61;69.21;96282.56;3567823;40;20087;-59
2021/04/04 03:35:34;;;;;;;13.48;9.45;;;;;;;0.66;67.89;96270.84;3580166;39;20081;-58
2021/04/04 03:38:05;;;;;;;14.85;10.73;;;;;;;0.62;68.27;96275.56;3571261;40;20579;-58
2021/04/04 03:40:32;;;;;;;11.20;9.18;;;;;;;0.57;68.38;96268.34;3573356;40;20062;-59
2021/04/04 03:43:05;;;;;;;12.57;9.57;;;;;;;0.56;67.67;96266.72;3570559;40;20337;-58
2021/04/04 03:45:33;;;;;;;19.98;12.43;;;;;;;0.52;69.26;96269.88;3579691;39;20069;-59
2021/04/04 03:48:02;;;;;;;10.77;9.48;;;;;;;0.50;69.17;96277.03;3571739;40;21466;-59
2021/04/04 03:50:32;;;;;;;14.90;10.60;;;;;;;0.41;68.88;96271.16;3580278;39;20178;-59
2021/04/04 03:52:59;;;;;;;15.77;11.35;;;;;;;0.28;69.82;96257.06;3578853;39;20076;-59
2021/04/04 03:55:29;;;;;;;18.70;12.50;;;;;;;0.25;70.17;96260.00;3573696;40;20322;-63
2021/04/04 03:57:58;;;;;;;14.13;11.18;;;;;;;0.11;70.88;96256.44;3571609;40;20596;-59
2021/04/04 04:00:27;;;;;;;13.57;10.48;;;;;;;0.03;71.56;96261.72;3580318;39;20076;-59
2021/04/04 04:02:56;;;;;;;17.40;11.15;;;;;;;-0.06;72.32;96263.59;3577784;39;20627;-59
2021/04/04 04:05:24;;;;;;;14.20;10.95;;;;;;;-0.06;72.48;96263.59;3570896;40;20086;-59
2021/04/04 04:07:54;;;;;;;15.32;11.00;;;;;;;-0.10;72.44;96257.19;3571086;40;20073;-59
2021/04/04 04:10:22;;;;;;;15.27;12.27;;;;;;;-0.12;72.84;96259.13;3579046;39;20276;-60
2021/04/04 04:12:51;;;;;;;16.02;10.63;;;;;;;-0.16;72.17;96263.06;3571328;40;20073;-59
2021/04/04 04:15:19;;;;;;;14.68;10.10;;;;;;;-0.24;72.32;96271.72;3570465;40;20073;-58
2021/04/04 04:17:47;;;;;;;13.40;10.25;;;;;;;-0.20;72.12;96270.41;3570670;40;20085;-59
2021/04/04 04:20:15;;;;;;;16.50;11.13;;;;;;;-0.21;72.12;96273.19;3579107;39;20078;-59
2021/04/04 04:22:44;;;;;;;14.10;10.20;;;;;;;-0.23;72.36;96283.72;3577368;39;20088;-58
2021/04/04 04:25:12;;;;;;;15.35;9.68;;;;;;;-0.19;71.80;96281.59;3571402;40;20103;-58
2021/04/04 04:27:42;;;;;;;15.45;10.15;;;;;;;-0.15;71.33;96285.41;3577817;39;20072;-58
2021/04/04 04:30:10;;;;;;;16.38;11.25;;;;;;;-0.14;71.54;96289.63;3571163;40;20061;-59
2021/04/04 04:32:40;;;;;;;15.63;10.65;;;;;;;-0.07;70.92;96280.16;3574996;39;20062;-59
2021/04/04 04:35:09;;;;;;;14.38;10.07;;;;;;;0.07;70.30;96283.72;3578226;39;20069;-59
2021/04/04 04:37:39;;;;;;;12.80;10.30;;;;;;;0.14;70.45;96286.41;3571062;40;20079;-58
2021/04/04 04:40:09;;;;;;;14.02;10.25;;;;;;;0.20;69.51;96283.06;3572571;40;20053;-59
2021/04/04 04:42:40;;;;;;;14.48;11.13;;;;;;;0.26;68.51;96281.53;3577778;39;20634;-58
2021/04/04 04:45:18;;;;;;;19.83;11.88;;;;;;;0.33;69.14;96286.81;3570782;40;20072;-59
2021/04/04 04:47:48;;;;;;;17.88;11.40;;;;;;;0.37;69.90;96293.25;3568938;40;20079;-58
2021/04/04 04:50:15;;;;;;;14.02;12.05;;;;;;;0.80;69.67;96288.13;3579418;39;20061;-58
2021/04/04 04:52:43;;;;;;;15.02;11.05;;;;;;;1.54;67.28;96284.38;3577090;39;20374;-59
2021/04/04 04:55:11;;;;;;;19.05;12.70;;;;;;;1.74;65.91;96291.53;3570831;40;20069;-59
2021/04/04 04:57:39;;;;;;;15.48;12.20;;;;;;;1.92;65.67;96291.03;3571398;40;20323;-61
2021/04/04 05:00:08;;;;;;;16.80;11.25;;;;;;;1.80;65.69;96285.56;3570576;40;20061;-59
2021/04/04 05:02:36;;;;;;;16.05;11.70;;;;;;;2.10;64.96;96277.53;3562157;40;20077;-59
2021/04/04 05:05:09;;;;;;;17.85;13.30;;;;;;;2.25;65.14;96293.00;3571563;40;20053;-59
2021/04/04 05:07:37;;;;;;;16.17;9.55;;;;;;;2.47;63.78;96277.25;3578903;39;20081;-59
2021/04/04 05:10:09;;;;;;;14.95;11.00;;;;;;;2.68;62.19;96286.75;3572367;40;20076;-60
2021/04/04 05:13:05;;;;;;;14.48;10.65;;;;;;;2.38;63.48;96283.66;3572209;40;20081;-59
2021/04/04 05:15:33;;;;;;;18.17;13.23;;;;;;;2.26;64.04;96286.03;3568872;40;20077;-59
2021/04/04 05:18:02;;;;;;;18.77;12.63;;;;;;;2.23;63.92;96289.00;3571058;40;20545;-60
2021/04/04 05:20:29;;;;;;;16.40;11.60;;;;;;;2.21;64.77;96293.59;3572137;40;20077;-59
2021/04/04 05:22:57;;;;;;;15.70;12.60;;;;;;;2.18;64.59;96320.00;3577516;39;20076;-60
2021/04/04 05:25:25;;;;;;;18.13;13.10;;;;;;;2.08;64.35;96310.75;3573296;40;20474;-60
2021/04/04 05:27:52;;;;;;;18.58;12.00;;;;;;;1.95;65.32;96321.88;3569298;40;20314;-60
2021/04/04 05:30:20;;;;;;;16.98;12.48;;;;;;;1.87;66.78;96318.63;3569948;40;20065;-60
2021/04/04 05:32:49;;;;;;;18.10;13.00;;;;;;;1.86;67.44;96322.22;3571075;40;20416;-61
2021/04/04 05:35:19;;;;;;;14.98;11.77;;;;;;;1.83;66.93;96315.59;3577623;39;20325;-59
2021/04/04 05:37:53;;;;;;;15.30;11.68;;;;;;;1.85;66.46;96318.78;3570052;40;20065;-60
2021/04/04 05:40:26;;;;;;;13.95;10.98;;;;;;;1.82;66.67;96327.78;3571148;40;20076;-60
2021/04/04 05:43:02;;;;;;;18.58;11.52;;;;;;;1.73;67.61;96323.72;3578584;39;20643;-59
2021/04/04 05:45:32;;;;;;;18.33;12.93;;;;;;;1.66;67.58;96328.09;3561249;40;20754;-60
2021/04/04 05:48:12;;;;;;;16.13;11.32;;;;;;;1.69;66.78;96332.91;3575376;39;20418;-60
2021/04/04 05:51:09;;;;;;;20.33;13.27;;;;;;;1.67;68.04;96329.66;3570914;40;20560;-63
2021/04/04 05:53:40;;;;;;;18.42;12.60;;;;;;;1.62;67.07;96335.44;3572189;40;20073;-60
2021/04/04 05:56:15;;;;;;;17.33;12.80;;;;;;;1.62;67.75;96334.66;3570412;40;20535;-59
2021/04/04 05:58:51;;;;;;;18.52;13.80;;;;;;;1.63;67.22;96334.44;3570827;40;20064;-59
2021/04/04 06:01:33;;;;;;;15.70;11.95;;;;;;;1.64;67.03;96336.06;3569725;40;20057;-59
2021/04/04 06:04:44;;;;;;;18.20;12.70;;;;;;;1.61;67.48;96333.03;3570408;40;20068;-59
2021/04/04 06:07:39;;;;;;;18.88;13.20;;;;;;;1.67;68.17;96340.06;3577748;39;20065;-61
2021/04/04 06:10:11;;;;;;;18.80;13.90;;;;;;;1.74;67.35;96346.16;3578538;39;20068;-59
2021/04/04 06:12:59;;;;;;;22.45;14.68;;;;;;;1.82;67.29;96340.78;3568514;40;20077;-60
2021/04/04 06:15:33;;;;;;;23.35;15.90;;;;;;;1.94;67.38;96332.47;3578155;39;20382;-60
2021/04/04 06:18:06;;;;;;;20.70;13.85;;;;;;;2.03;66.93;96340.94;3567722;40;20069;-60
2021/04/04 06:20:48;;;;;;;16.75;13.27;;;;;;;2.03;65.78;96336.53;3570357;40;20065;-60
2021/04/04 06:23:39;;;;;;;21.13;14.32;;;;;;;2.02;65.54;96345.34;3574041;40;20084;-60
2021/04/04 06:26:31;;;;;;;16.50;13.40;;;;;;;1.98;65.17;96346.72;3576303;39;20076;-59
2021/04/04 06:28:59;;;;;;;19.05;13.63;;;;;;;1.98;65.24;96346.72;3573813;40;20073;-60
2021/04/04 06:31:41;;;;;;;17.90;12.20;;;;;;;1.92;65.04;96344.84;3578378;39;20081;-59
2021/04/04 06:34:13;;;;;;;22.02;13.45;;;;;;;1.98;65.32;96347.50;3576560;39;20064;-60
2021/04/04 06:36:50;;;;;;;20.55;13.80;;;;;;;2.02;65.10;96358.34;3577534;39;20072;-60
2021/04/04 06:39:44;;;;;;;19.85;13.93;;;;;;;2.00;64.70;96355.13;3570280;40;20092;-60
2021/04/04 06:42:20;;;;;;;17.00;13.50;;;;;;;2.09;64.92;96363.59;3579035;39;20110;-60
2021/04/04 06:45:11;;;;;;;16.27;12.57;;;;;;;2.21;63.40;96361.25;3570743;40;20065;-60
2021/04/04 06:48:01;;;;;;;18.67;12.68;;;;;;;2.28;64.01;96367.31;3571886;39;20115;-59
2021/04/04 06:50:33;;;;;;;19.63;13.52;;;;;;;2.34;63.10;96365.75;3568482;40;20076;-59
2021/04/04 06:53:16;;;;;;;18.02;12.23;;;;;;;2.40;63.39;96367.56;3569592;40;20081;-61
2021/04/04 06:55:48;;;;;;;18.08;13.20;;;;;;;2.42;62.70;96370.81;3577800;39;20073;-58
2021/04/04 06:58:44;;;;;;;16.88;12.35;;;;;;;2.40;61.33;96365.75;3571561;40;20077;-61
2021/04/04 07:01:28;;;;;;;17.17;12.47;;;;;;;2.19;60.67;96368.44;3572569;40;20070;-61
2021/04/04 07:04:21;;;;;;;14.48;12.00;;;;;;;2.14;60.09;96359.44;3569917;40;20073;-59
2021/04/04 07:07:13;;;;;;;15.90;11.45;;;;;;;2.12;61.67;96371.84;3557477;40;20065;-59
2021/04/04 07:09:52;;;;;;;15.30;10.48;;;;;;;2.08;61.78;96378.41;3572648;40;20401;-59
2021/04/04 07:12:52;;;;;;;16.13;10.98;;;;;;;2.08;60.24;96362.00;3578981;39;20088;-60
2021/04/04 07:15:35;;;;;;;13.95;9.70;;;;;;;2.10;60.38;96360.81;3563341;40;20087;-59
2021/04/04 07:18:34;;;;;;;12.60;10.35;;;;;;;2.07;59.31;96352.59;3580004;39;20085;-59
2021/04/04 07:21:40;;;;;;;16.88;10.23;;;;;;;1.97;57.42;96348.50;3556829;40;20068;-60
2021/04/04 07:24:23;;;;;;;15.70;11.07;;;;;;;1.83;58.12;96346.81;3570128;40;20073;-54
2021/04/04 07:27:02;;;;;;;12.65;9.50;;;;;;;1.93;59.54;96349.06;3570901;40;20092;-56
2021/04/04 07:29:42;;;;;;;12.88;9.20;;;;;;;2.16;58.59;96356.63;3579162;39;20081;-55
2021/04/04 07:32:16;;;;;;;13.30;9.80;;;;;;;2.32;55.46;96363.31;3570592;40;20096;-54
2021/04/04 07:35:23;;;;;;;12.95;8.98;;;;;;;2.27;55.65;96361.31;3571298;40;20069;-54
2021/04/04 07:38:17;;;;;;;14.20;9.40;;;;;;;2.48;54.44;96343.19;3573039;40;20099;-54
2021/04/04 07:40:52;;;;;;;11.38;8.50;;;;;;;2.32;54.68;96352.91;3574232;40;20080;-53
2021/04/04 07:43:30;;;;;;;7.88;5.85;;;;;;;2.40;51.56;96355.34;3578992;39;20464;-54
2021/04/04 07:46:35;;;;;;;10.35;6.53;;;;;;;2.44;52.00;96358.41;3572839;40;20425;-55
2021/04/04 07:49:14;;;;;;;4.75;3.50;;;;;;;2.44;46.70;96356.59;3579524;39;20419;-54
2021/04/04 07:51:48;;;;;;;3.78;2.67;;;;;;;2.53;45.46;96351.19;3579372;39;20326;-57
2021/04/04 07:54:55;;;;;;;3.15;1.85;;;;;;;2.44;43.14;96335.75;3569938;40;20688;-56
2021/04/04 07:57:30;;;;;;;3.47;3.17;;;;;;;2.80;45.48;96349.53;3566669;40;20296;-56
2021/04/04 08:00:04;;;;;;;5.63;3.65;;;;;;;2.91;45.80;96341.16;3573494;40;20088;-55
2021/04/04 08:02:43;;;;;;;5.70;4.45;;;;;;;2.93;46.80;96359.19;3572153;40;20875;-56
2021/04/04 08:05:13;;;;;;;5.85;4.57;;;;;;;3.06;46.55;96355.81;3577975;39;20084;-55
2021/04/04 08:08:04;;;;;;;5.47;4.10;;;;;;;3.18;45.77;96358.63;3579878;39;20294;-55
2021/04/04 08:10:36;;;;;;;10.98;5.13;;;;;;;3.09;47.30;96347.59;3580466;39;21829;-55
2021/04/04 08:13:15;;;;;;;8.48;5.55;;;;;;;3.17;48.71;96350.03;3578824;39;20077;-55
2021/04/04 08:15:57;;;;;;;8.68;5.50;;;;;;;3.24;48.66;96347.44;3576686;40;20069;-55
2021/04/04 08:18:25;;;;;;;8.90;5.65;;;;;;;3.34;49.83;96349.63;3577043;39;20856;-55
2021/04/04 08:20:56;;;;;;;8.98;6.63;;;;;;;3.37;48.51;96349.25;3567261;40;20076;-55
2021/04/04 08:23:41;;;;;;;7.95;6.40;;;;;;;3.46;48.13;96378.56;3560469;40;20076;-55
2021/04/04 08:26:25;;;;;;;11.55;6.85;;;;;;;3.26;47.51;96362.88;3571076;40;20081;-55
2021/04/04 08:29:06;;;;;;;6.85;5.03;;;;;;;3.17;48.57;96365.69;3573069;40;20690;-55
2021/04/04 08:31:42;;;;;;;11.30;6.38;;;;;;;3.11;48.33;96376.88;3579684;39;20064;-58
2021/04/04 08:34:23;;;;;;;9.10;5.15;;;;;;;3.14;47.36;96379.09;3570337;40;20326;-56
2021/04/04 08:37:06;;;;;;;8.75;5.97;;;;;;;3.16;47.98;96378.88;3573048;40;20071;-56
2021/04/04 08:39:34;;;;;;;10.30;6.60;;;;;;;3.14;47.42;96384.31;3568730;40;20071;-56
2021/04/04 08:42:05;;;;;;;6.60;5.35;;;;;;;3.26;45.98;96379.34;3578845;39;20628;-56
2021/04/04 08:44:41;;;;;;;7.30;5.03;;;;;;;3.33;45.60;96358.47;3570094;40;20310;-56
2021/04/04 08:47:25;;;;;;;7.82;4.80;;;;;;;3.41;47.82;96354.88;3577783;39;20409;-56
2021/04/04 08:49:53;;;;;;;13.55;5.85;;;;;;;3.65;46.82;96364.72;3572553;40;20068;-56
2021/04/04 08:52:30;;;;;;;8.30;5.20;;;;;;;3.84;46.78;96364.94;3577573;39;20389;-56
2021/04/04 08:54:58;;;;;;;8.18;5.65;;;;;;;4.05;46.24;96361.31;3572293;40;20057;-56
2021/04/04 08:57:47;;;;;;;8.25;5.63;;;;;;;4.15;43.47;96373.94;3577360;39;20087;-57
2021/04/04 09:00:16;;;;;;;6.53;3.15;;;;;;;3.99;42.60;96357.69;3578123;39;20081;-56
2021/04/04 09:03:05;;;;;;;5.35;3.25;;;;;;;3.91;42.29;96368.31;3577021;39;20061;-56
2021/04/04 09:05:36;;;;;;;5.35;3.28;;;;;;;4.10;42.54;96358.09;3572147;40;20077;-56
2021/04/04 09:08:05;;;;;;;4.35;3.17;;;;;;;4.39;40.72;96354.22;3571025;40;20345;-56
2021/04/04 09:10:35;;;;;;;5.10;3.40;;;;;;;4.57;41.25;96347.50;3579411;39;20065;-56
2021/04/04 09:13:07;;;;;;;3.80;2.17;;;;;;;4.75;36.35;96359.91;3577529;39;20119;-55
2021/04/04 09:15:51;;;;;;;2.65;2.35;;;;;;;4.76;37.04;96353.66;3572902;40;20070;-56
2021/04/04 09:18:19;;;;;;;4.88;2.50;;;;;;;4.89;37.29;96344.97;3576920;39;20077;-55
2021/04/04 09:20:49;;;;;;;3.72;2.40;;;;;;;4.92;37.05;96347.97;3570436;40;20072;-55
2021/04/04 09:23:21;;;;;;;4.32;2.45;;;;;;;4.97;36.86;96341.31;3569076;40;20080;-55
2021/04/04 09:26:01;;;;;;;5.97;3.75;;;;;;;5.07;36.88;96341.66;3572340;40;20580;-55
2021/04/04 09:28:31;;;;;;;7.80;4.20;;;;;;;5.07;39.79;96347.69;3578322;39;20065;-55
2021/04/04 09:31:01;;;;;;;7.22;5.07;;;;;;;5.35;41.38;96348.34;3578661;39;20453;-55
2021/04/04 09:33:34;;;;;;;8.80;5.20;;;;;;;5.65;42.64;96347.72;3568700;40;20064;-55
2021/04/04 09:36:06;;;;;;;6.77;4.20;;;;;;;5.95;41.18;96342.63;3578936;39;20061;-56
2021/04/04 09:38:37;;;;;;;7.82;4.63;;;;;;;6.22;42.29;96338.97;3577495;39;20074;-54
2021/04/04 09:41:07;;;;;;;6.95;4.90;;;;;;;6.40;42.54;96341.63;3572949;40;20311;-57
2021/04/04 09:43:45;;;;;;;9.15;5.65;;;;;;;6.49;40.84;96354.44;3576275;39;20091;-55
2021/04/04 09:46:12;;;;;;;9.57;5.60;;;;;;;6.18;41.08;96356.16;3571508;40;20069;-58
2021/04/04 09:48:41;;;;;;;7.00;5.25;;;;;;;6.06;40.82;96356.88;3576339;39;20073;-55
2021/04/04 09:52:37;;;;;;;;;;;;;;;6.00;41.30;96349.88;3593534;39;20375;-55
2021/04/04 09:55:07;;;;;;;7.78;5.88;;;;;;;5.95;42.25;96347.09;3596926;39;19946;-54
2021/04/04 09:57:55;;;;;;;7.43;5.45;;;;;;;5.81;42.24;96352.44;3592379;39;20056;-55
2021/04/04 10:00:30;;;;;;;6.15;4.97;;;;;;;5.77;42.86;96348.63;3591775;39;20046;-55
2021/04/04 10:03:10;;;;;;;7.10;5.90;;;;;;;5.88;42.32;96347.16;3592609;39;20051;-55
2021/04/04 10:05:40;;;;;;;5.53;4.22;;;;;;;5.90;41.40;96352.97;3592329;39;20050;-57
2021/04/04 10:08:29;;;;;;;9.13;5.47;;;;;;;5.82;41.37;96354.03;3591072;39;20044;-57
2021/04/04 10:10:58;;;;;;;9.13;5.28;;;;;;;5.70;41.30;96358.38;3593140;39;20037;-54
2021/04/04 10:13:30;;;;;;;6.22;4.35;;;;;;;5.57;41.97;96351.41;3592485;39;20279;-56
2021/04/04 10:15:58;;;;;;;5.95;4.63;;;;;;;5.51;41.81;96347.81;3592891;39;20060;-54
2021/04/04 10:18:26;;;;;;;6.68;3.92;;;;;;;5.61;41.49;96357.00;3591930;39;20410;-56
2021/04/04 10:20:58;;;;;;;8.00;4.65;;;;;;;5.39;40.40;96352.94;3592838;39;20052;-56
2021/04/04 10:23:35;;;;;;;7.32;5.07;;;;;;;5.23;41.28;96356.06;3592185;39;20594;-56
2021/04/04 10:26:06;;;;;;;5.88;4.10;;;;;;;5.20;41.81;96359.09;3592707;39;20047;-55
2021/04/04 10:29:03;;;;;;;6.35;4.43;;;;;;;5.24;41.27;96363.69;3593039;39;20869;-57
2021/04/04 10:31:49;;;;;;;8.93;4.75;;;;;;;5.43;40.48;96349.88;3586033;39;20044;-56
2021/04/04 10:34:17;;;;;;;5.93;4.53;;;;;;;5.59;41.02;96348.59;3587708;39;20048;-55
2021/04/04 10:37:01;;;;;;;6.78;4.75;;;;;;;5.61;39.38;96355.22;3591467;39;20044;-55
2021/04/04 10:39:28;;;;;;;6.18;4.40;;;;;;;5.54;40.09;96336.13;3596530;39;20435;-55
2021/04/04 10:41:55;;;;;;;7.25;5.65;;;;;;;5.81;39.09;96339.34;3592131;39;20060;-55
2021/04/04 10:44:24;;;;;;;8.15;5.20;;;;;;;5.93;39.83;96344.66;3592155;39;20317;-55
2021/04/04 10:46:51;;;;;;;6.57;4.50;;;;;;;5.86;40.57;96343.94;3590872;39;20048;-55
2021/04/04 10:49:20;;;;;;;6.65;5.30;;;;;;;5.91;39.56;96356.38;3596921;39;20050;-55
2021/04/04 10:51:48;;;;;;;7.15;5.10;;;;;;;5.84;38.38;96344.16;3592220;39;20504;-55
2021/04/04 10:54:16;;;;;;;6.65;4.55;;;;;;;5.81;38.77;96326.25;3595867;39;20055;-55
2021/04/04 10:56:43;;;;;;;6.68;5.68;;;;;;;5.87;38.88;96334.25;3599879;39;20041;-56
2021/04/04 10:59:12;;;;;;;6.65;5.47;;;;;;;5.91;40.32;96330.97;3592787;39;20055;-55
2021/04/04 11:01:41;;;;;;;10.05;5.82;;;;;;;6.07;39.50;96326.25;3591663;39;20498;-54
2021/04/04 11:04:13;;;;;;;10.60;4.90;;;;;;;6.05;38.84;96333.50;3590016;39;20051;-57
2021/04/04 11:06:42;;;;;;;5.57;4.35;;;;;;;6.11;38.10;96325.59;3585508;39;20056;-55
2021/04/04 11:09:09;;;;;;;6.35;4.63;;;;;;;6.07;38.27;96327.06;3584804;39;20052;-56
2021/04/04 11:11:40;;;;;;;10.30;6.03;;;;;;;6.20;38.82;96315.63;3589815;39;20048;-54
2021/04/04 11:14:11;;;;;;;6.97;4.93;;;;;;;6.31;38.53;96314.91;3589268;39;20315;-55
2021/04/04 11:16:39;;;;;;;9.38;6.10;;;;;;;6.38;38.19;96314.06;3588493;39;20041;-55
2021/04/04 11:19:08;;;;;;;9.25;6.32;;;;;;;6.51;38.94;96313.91;3583862;40;20048;-57
2021/04/04 11:21:42;;;;;;;9.00;6.07;;;;;;;6.54;38.51;96317.91;3585718;39;20051;-54
2021/04/04 11:24:14;;;;;;;6.95;6.13;;;;;;;6.52;37.08;96314.69;3584334;40;20049;-56
2021/04/04 11:26:50;;;;;;;8.65;6.40;;;;;;;6.41;38.03;96317.03;3583669;40;20082;-54
2021/04/04 11:29:20;;;;;;;6.70;5.68;;;;;;;6.35;37.69;96296.94;3591170;39;20059;-55
2021/04/04 11:31:49;;;;;;;14.35;6.95;;;;;;;6.38;39.60;96314.84;3572236;40;20047;-55
2021/04/04 11:34:34;;;;;;;5.80;4.55;;;;;;;6.45;37.23;96312.97;3586885;39;20078;-54
2021/04/04 11:37:04;;;;;;;6.30;4.72;;;;;;;6.41;37.39;96303.94;3588955;39;20372;-55
2021/04/04 11:39:32;;;;;;;7.95;5.82;;;;;;;6.61;37.15;96308.13;3575616;40;20382;-54
2021/04/04 11:42:02;;;;;;;6.95;5.18;;;;;;;6.76;36.92;96297.28;3584741;39;20048;-55
2021/04/04 11:44:37;;;;;;;10.02;6.35;;;;;;;6.61;38.74;96300.25;3584877;39;20043;-56
2021/04/04 11:47:17;;;;;;;7.10;5.63;;;;;;;6.68;37.55;96303.63;3584396;39;20055;-54
2021/04/04 11:49:50;;;;;;;12.63;6.57;;;;;;;6.79;38.85;96299.44;3587688;39;20052;-55
2021/04/04 11:52:18;;;;;;;7.20;5.88;;;;;;;6.61;38.16;96295.00;3584370;39;20046;-55
2021/04/04 11:54:46;;;;;;;7.85;6.85;;;;;;;7.02;37.90;96292.66;3585215;39;20029;-54
2021/04/04 11:57:20;;;;;;;7.32;6.05;;;;;;;7.10;38.67;96279.25;3584073;39;20443;-56
2021/04/04 11:59:56;;;;;;;7.45;6.15;;;;;;;7.18;38.86;96286.00;3588805;39;20058;-56
2021/04/04 12:02:29;;;;;;;9.85;6.93;;;;;;;7.21;37.56;96281.09;3586091;39;20047;-56
2021/04/04 12:05:11;;;;;;;10.15;6.35;;;;;;;7.28;38.35;96280.19;3585333;40;20061;-55